createdAt,value
2023-03-17T00:01:18.586Z,54.29
2023-03-17T00:03:47.675Z,54.04
2023-03-17T00:06:18.477Z,53.67
2023-03-17T00:08:47.309Z,53.47
2023-03-17T00:11:16.515Z,53.33
2023-03-17T00:13:44.938Z,53.73
2023-03-17T00:16:17.142Z,53.73
2023-03-17T00:18:46.548Z,54.14
2023-03-17T00:21:15.785Z,53.46
2023-03-17T00:23:47.869Z,54.08
2023-03-17T00:26:16.136Z,54.82
2023-03-17T00:28:44.704Z,54.67
2023-03-17T00:31:15.300Z,54.66
2023-03-17T00:33:44.335Z,54.19
2023-03-17T00:36:17.928Z,53.94
2023-03-17T00:38:45.941Z,54.09
2023-03-17T00:41:14.322Z,54.37
2023-03-17T00:43:42.820Z,54.69
2023-03-17T00:46:14.613Z,54.84
2023-03-17T00:48:43.373Z,55.54
2023-03-17T00:51:11.355Z,55.65
2023-03-17T00:53:40.813Z,55.46
2023-03-17T00:56:14.317Z,56.04
2023-03-17T00:58:42.723Z,55.16
2023-03-17T01:01:11.111Z,56.01
2023-03-17T01:03:39.993Z,56.26
2023-03-17T01:06:11.275Z,56.47
2023-03-17T01:08:41.572Z,55.89
2023-03-17T01:11:16.040Z,55.71
2023-03-17T01:13:43.695Z,55.76
2023-03-17T01:16:12.384Z,56.51
2023-03-17T01:18:40.153Z,57.40
2023-03-17T01:21:07.949Z,57.07
2023-03-17T01:23:35.673Z,57.75
2023-03-17T01:26:05.499Z,57.20
2023-03-17T01:28:33.271Z,57.61
2023-03-17T01:31:02.688Z,57.62
2023-03-17T01:33:30.371Z,57.81
2023-03-17T01:35:58.102Z,56.71
2023-03-17T01:38:25.768Z,57.24
2023-03-17T01:40:54.749Z,58.20
2023-03-17T01:43:27.473Z,58.50
2023-03-17T01:46:20.639Z,58.32
2023-03-17T01:48:55.810Z,58.34
2023-03-17T01:51:30.225Z,58.22
2023-03-17T01:53:58.477Z,58.33
2023-03-17T01:56:26.993Z,58.19
2023-03-17T01:58:58.454Z,58.80
2023-03-17T02:01:31.964Z,59.14
2023-03-17T02:04:00.892Z,59.31
2023-03-17T02:06:29.499Z,58.54
2023-03-17T02:08:57.313Z,58.55
2023-03-17T02:11:25.079Z,58.88
2023-03-17T02:13:53.269Z,59.13
2023-03-17T02:16:22.418Z,58.62
2023-03-17T02:18:50.086Z,58.28
2023-03-17T02:21:41.632Z,58.82
2023-03-17T02:24:17.558Z,58.89
2023-03-17T02:26:46.581Z,58.85
2023-03-17T02:29:14.333Z,58.50
2023-03-17T02:31:42.007Z,58.85
2023-03-17T02:34:09.672Z,59.67
2023-03-17T02:36:38.756Z,59.04
2023-03-17T02:39:06.486Z,59.53
2023-03-17T02:41:34.215Z,59.71
2023-03-17T02:44:02.332Z,59.99
2023-03-17T02:46:30.065Z,59.07
2023-03-17T02:48:57.890Z,59.50
2023-03-17T02:51:25.577Z,59.35
2023-03-17T02:53:54.605Z,59.20
2023-03-17T02:56:22.335Z,58.30
2023-03-17T02:58:50.097Z,59.20
2023-03-17T03:01:18.171Z,58.88
2023-03-17T03:03:45.962Z,58.67
2023-03-17T03:06:13.660Z,58.30
2023-03-17T03:08:41.314Z,59.24
2023-03-17T03:11:10.300Z,58.72
2023-03-17T03:13:38.954Z,59.15
2023-03-17T03:16:07.360Z,60.10
2023-03-17T03:18:35.039Z,59.41
2023-03-17T03:21:03.018Z,58.33
2023-03-17T03:23:30.702Z,58.99
2023-03-17T03:25:58.441Z,58.58
2023-03-17T03:28:27.546Z,58.08
2023-03-17T03:30:55.145Z,58.45
2023-03-17T03:33:23.104Z,58.86
2023-03-17T03:35:50.779Z,58.71
2023-03-17T03:38:18.492Z,57.61
2023-03-17T03:40:46.750Z,58.31
2023-03-17T03:43:22.743Z,58.61
2023-03-17T03:45:52.914Z,58.24
2023-03-17T03:48:20.587Z,57.37
2023-03-17T03:50:48.763Z,57.54
2023-03-17T03:53:16.836Z,58.30
2023-03-17T03:55:44.489Z,57.98
2023-03-17T03:58:12.220Z,57.53
2023-03-17T04:00:39.847Z,57.50
2023-03-17T04:03:09.009Z,57.23
2023-03-17T04:05:36.731Z,57.53
2023-03-17T04:08:04.595Z,57.11
2023-03-17T04:10:32.750Z,57.68
2023-03-17T04:13:00.624Z,56.88
2023-03-17T04:15:28.271Z,56.87
2023-03-17T04:17:56.055Z,56.26
2023-03-17T04:20:25.074Z,57.33
2023-03-17T04:22:52.679Z,56.89
2023-03-17T04:25:20.550Z,57.07
2023-03-17T04:27:48.252Z,57.16
2023-03-17T04:30:16.951Z,57.41
2023-03-17T04:32:45.309Z,57.73
2023-03-17T04:35:15.881Z,56.46
2023-03-17T04:37:45.100Z,57.27
2023-03-17T04:40:14.397Z,56.91
2023-03-17T04:42:42.585Z,57.11
2023-03-17T04:45:13.985Z,56.78
2023-03-17T04:47:42.021Z,58.41
2023-03-17T04:50:11.192Z,58.15
2023-03-17T04:52:39.739Z,56.96
2023-03-17T04:55:09.792Z,57.04
2023-03-17T04:57:37.647Z,56.94
2023-03-17T05:00:07.153Z,57.21
2023-03-17T05:02:35.171Z,57.41
2023-03-17T05:05:03.119Z,56.86
2023-03-17T05:07:33.879Z,57.30
2023-03-17T05:10:02.058Z,57.41
2023-03-17T05:12:31.084Z,57.00
2023-03-17T05:14:58.718Z,57.66
2023-03-17T05:17:26.381Z,57.63
2023-03-17T05:19:53.979Z,56.52
2023-03-17T05:22:21.563Z,57.20
2023-03-17T05:24:49.189Z,57.17
2023-03-17T05:27:16.912Z,56.79
2023-03-17T05:29:45.925Z,56.76
2023-03-17T05:32:14.286Z,56.99
2023-03-17T05:34:42.008Z,57.39
2023-03-17T05:37:10.245Z,56.16
2023-03-17T05:39:38.342Z,56.63
2023-03-17T05:42:06.194Z,57.47
2023-03-17T05:44:34.146Z,57.69
2023-03-17T05:47:03.174Z,57.94
2023-03-17T05:49:30.906Z,58.26
2023-03-17T05:51:58.763Z,57.92
2023-03-17T05:54:26.500Z,57.67
2023-03-17T05:56:54.708Z,57.93
2023-03-17T05:59:22.349Z,57.88
2023-03-17T06:01:50.079Z,57.98
2023-03-17T06:04:19.125Z,57.42
2023-03-17T06:06:46.771Z,56.35
2023-03-17T06:09:14.999Z,56.48
2023-03-17T06:11:43.904Z,56.31
2023-03-17T06:14:12.006Z,57.86
2023-03-17T06:16:39.629Z,57.05
2023-03-17T06:19:07.379Z,56.95
2023-03-17T06:21:36.882Z,55.94
2023-03-17T06:24:04.973Z,57.42
2023-03-17T06:26:32.957Z,57.53
2023-03-17T06:29:01.398Z,57.68
2023-03-17T06:31:29.057Z,57.87
2023-03-17T06:33:57.385Z,56.59
2023-03-17T06:36:25.280Z,57.18
2023-03-17T06:38:54.396Z,57.77
2023-03-17T06:41:22.051Z,57.53
2023-03-17T06:43:49.736Z,57.82
2023-03-17T06:46:17.638Z,56.88
2023-03-17T06:48:45.433Z,56.09
2023-03-17T06:51:13.161Z,57.02
2023-03-17T06:53:41.067Z,56.75
2023-03-17T06:56:23.642Z,56.34
2023-03-17T06:58:56.679Z,56.39
2023-03-17T07:01:24.408Z,56.26
2023-03-17T07:03:52.186Z,55.68
2023-03-17T07:06:19.926Z,56.66
2023-03-17T07:08:47.583Z,55.48
2023-03-17T07:11:17.055Z,56.49
2023-03-17T07:13:45.375Z,56.44
2023-03-17T07:16:15.123Z,54.95
2023-03-17T07:18:43.339Z,55.84
2023-03-17T07:21:10.961Z,55.23
2023-03-17T07:23:38.866Z,54.21
2023-03-17T07:26:06.661Z,54.14
2023-03-17T07:28:35.753Z,53.55
2023-03-17T07:31:05.713Z,53.65
2023-03-17T07:33:33.682Z,54.87
2023-03-17T07:36:01.613Z,54.79
2023-03-17T07:38:29.365Z,53.08
2023-03-17T07:40:56.973Z,53.18
2023-03-17T07:43:24.648Z,52.34
2023-03-17T07:45:53.776Z,52.45
2023-03-17T07:48:21.460Z,52.03
2023-03-17T07:50:49.118Z,51.87
2023-03-17T07:53:16.926Z,51.08
2023-03-17T07:55:44.636Z,51.34
2023-03-17T07:58:15.082Z,51.44
2023-03-17T08:00:43.293Z,50.18
2023-03-17T08:03:12.517Z,50.21
2023-03-17T08:05:40.986Z,50.46
2023-03-17T08:08:08.682Z,50.79
2023-03-17T08:10:36.451Z,49.73
2023-03-17T08:13:04.588Z,50.02
2023-03-17T08:15:32.302Z,51.91
2023-03-17T08:18:00.957Z,49.99
2023-03-17T08:20:30.621Z,49.30
2023-03-17T08:22:58.635Z,48.60
2023-03-17T08:25:26.311Z,48.70
2023-03-17T08:27:55.862Z,47.62
2023-03-17T08:30:23.589Z,47.68
2023-03-17T08:32:51.381Z,47.00
2023-03-17T08:35:19.585Z,47.59
2023-03-17T08:37:48.610Z,47.74
2023-03-17T08:40:18.537Z,47.61
2023-03-17T08:42:48.101Z,47.00
2023-03-17T08:45:18.333Z,46.90
2023-03-17T08:47:46.678Z,47.81
2023-03-17T08:50:19.704Z,49.69
2023-03-17T08:52:49.647Z,46.97
2023-03-17T08:55:17.940Z,46.71
2023-03-17T08:57:46.168Z,46.62
2023-03-17T09:00:19.227Z,46.43
2023-03-17T09:02:47.884Z,46.99
2023-03-17T09:05:17.877Z,44.60
2023-03-17T09:07:45.816Z,44.90
2023-03-17T09:10:16.762Z,44.70
2023-03-17T09:12:44.465Z,45.61
2023-03-17T09:15:13.153Z,45.15
2023-03-17T09:17:43.675Z,45.44
2023-03-17T09:20:11.725Z,44.69
2023-03-17T09:22:39.503Z,46.48
2023-03-17T09:25:07.664Z,47.10
2023-03-17T09:27:37.431Z,45.47
2023-03-17T09:30:05.904Z,45.77
2023-03-17T09:32:34.091Z,44.50
2023-03-17T09:35:01.831Z,44.57
2023-03-17T09:37:29.468Z,45.18
2023-03-17T09:39:57.862Z,45.04
2023-03-17T09:42:47.416Z,45.15
2023-03-17T09:45:25.550Z,44.71
2023-03-17T09:48:04.658Z,43.58
2023-03-17T09:50:38.956Z,44.14
2023-03-17T09:53:13.794Z,44.90
2023-03-17T09:55:41.982Z,43.44
2023-03-17T09:58:12.578Z,43.29
2023-03-17T10:00:40.173Z,42.00
2023-03-17T10:03:11.894Z,41.65
2023-03-17T10:05:39.913Z,41.60
2023-03-17T10:08:29.613Z,40.58
2023-03-17T10:11:10.887Z,41.78
2023-03-17T10:13:50.685Z,40.32
2023-03-17T10:16:21.740Z,39.83
2023-03-17T10:18:54.268Z,41.48
2023-03-17T10:21:26.709Z,42.89
2023-03-17T10:23:57.362Z,42.37
2023-03-17T10:26:27.406Z,39.85
2023-03-17T10:28:57.365Z,39.24
2023-03-17T10:31:30.242Z,41.49
2023-03-17T10:34:05.245Z,40.35
2023-03-17T10:36:36.309Z,39.69
2023-03-17T10:39:06.811Z,39.31
2023-03-17T10:41:37.109Z,38.18
2023-03-17T10:44:10.633Z,38.77
2023-03-17T10:46:40.129Z,38.61
2023-03-17T10:49:10.763Z,39.94
2023-03-17T10:51:40.642Z,40.09
2023-03-17T10:54:10.874Z,41.09
2023-03-17T10:56:42.218Z,40.66
2023-03-17T10:59:21.056Z,39.01
2023-03-17T11:01:54.006Z,38.86
2023-03-17T11:04:33.674Z,38.57
2023-03-17T11:07:08.001Z,38.27
2023-03-17T11:09:36.944Z,38.39
2023-03-17T11:12:06.860Z,38.78
2023-03-17T11:14:36.409Z,40.59
2023-03-17T11:17:13.799Z,38.89
2023-03-17T11:19:49.161Z,39.74
2023-03-17T11:22:21.744Z,40.09
2023-03-17T11:24:59.604Z,40.91
2023-03-17T11:27:32.267Z,38.03
2023-03-17T11:30:25.970Z,36.92
2023-03-17T11:32:58.618Z,39.01
2023-03-17T11:35:39.119Z,38.15
2023-03-17T11:38:25.850Z,37.25
2023-03-17T11:41:12.517Z,37.15
2023-03-17T11:43:50.246Z,38.29
2023-03-17T11:46:23.725Z,37.42
2023-03-17T11:49:01.212Z,37.29
2023-03-17T11:51:36.067Z,40.32
2023-03-17T11:54:11.749Z,38.18
2023-03-17T11:56:44.016Z,37.22
2023-03-17T11:59:25.818Z,37.38
2023-03-17T12:02:02.239Z,36.98
2023-03-17T12:04:34.614Z,37.58
2023-03-17T12:07:12.429Z,37.58
2023-03-17T12:09:45.581Z,37.65
2023-03-17T12:12:18.611Z,38.30
2023-03-17T12:14:49.496Z,37.35
2023-03-17T12:17:25.081Z,38.04
2023-03-17T12:20:06.942Z,36.51
2023-03-17T12:22:41.398Z,36.30
2023-03-17T12:25:17.934Z,37.66
2023-03-17T12:27:53.372Z,38.67
2023-03-17T12:30:29.083Z,38.51
2023-03-17T12:33:05.752Z,36.54
2023-03-17T12:35:38.666Z,38.05
2023-03-17T12:38:11.392Z,37.68
2023-03-17T12:40:52.126Z,36.57
2023-03-17T12:43:37.413Z,37.47
2023-03-17T12:46:44.279Z,38.19
2023-03-17T12:49:30.426Z,37.43
2023-03-17T12:52:07.738Z,38.06
2023-03-17T12:54:39.414Z,37.31
2023-03-17T12:57:14.456Z,37.19
2023-03-17T12:59:44.386Z,37.73
2023-03-17T13:02:19.165Z,37.75
2023-03-17T13:04:57.882Z,38.51
2023-03-17T13:07:27.898Z,38.48
2023-03-17T13:10:35.002Z,38.48
2023-03-17T13:13:36.660Z,38.51
2023-03-17T13:16:06.783Z,38.06
2023-03-17T13:18:53.223Z,38.79
2023-03-17T13:21:26.227Z,38.62
2023-03-17T13:24:01.233Z,38.30
2023-03-17T13:26:54.923Z,36.85
2023-03-17T13:29:45.626Z,37.42
2023-03-17T13:32:38.613Z,36.33
2023-03-17T13:35:26.643Z,37.19
2023-03-17T13:38:38.296Z,38.26
2023-03-17T13:41:35.631Z,37.06
2023-03-17T13:44:16.519Z,38.28
2023-03-17T13:46:46.779Z,38.54
2023-03-17T13:49:22.310Z,37.60
2023-03-17T13:51:59.868Z,37.41
2023-03-17T13:54:35.088Z,36.72
2023-03-17T13:57:24.831Z,39.67
2023-03-17T14:00:00.513Z,38.39
2023-03-17T14:02:32.779Z,37.89
2023-03-17T14:05:03.430Z,39.42
2023-03-17T14:07:40.653Z,37.08
2023-03-17T14:10:19.307Z,36.21
2023-03-17T14:12:54.615Z,36.80
2023-03-17T14:15:28.524Z,36.72
2023-03-17T14:18:02.023Z,37.58
2023-03-17T14:20:30.552Z,36.88
2023-03-17T14:23:01.808Z,37.29
2023-03-17T14:25:34.750Z,36.13
2023-03-17T14:28:05.833Z,36.24
2023-03-17T14:30:35.128Z,36.70
2023-03-17T14:33:06.302Z,36.44
2023-03-17T14:35:36.068Z,36.01
2023-03-17T14:38:04.290Z,35.99
2023-03-17T14:40:36.863Z,37.28
2023-03-17T14:43:05.259Z,37.55
2023-03-17T14:45:47.184Z,35.72
2023-03-17T14:48:17.205Z,35.01
2023-03-17T14:50:52.246Z,34.68
2023-03-17T14:53:23.929Z,35.22
2023-03-17T14:55:54.157Z,35.53
2023-03-17T14:58:25.809Z,36.58
2023-03-17T15:00:58.172Z,36.54
2023-03-17T15:03:31.550Z,35.21
2023-03-17T15:06:21.917Z,36.55
2023-03-17T15:08:50.716Z,35.31
2023-03-17T15:11:26.658Z,34.81
2023-03-17T15:13:57.962Z,35.21
2023-03-17T15:16:29.268Z,35.63
2023-03-17T15:19:06.147Z,35.18
2023-03-17T15:21:36.689Z,35.78
2023-03-17T15:24:19.867Z,36.69
2023-03-17T15:26:48.987Z,36.81
2023-03-17T15:29:17.582Z,36.53
2023-03-17T15:31:45.552Z,36.99
2023-03-17T15:34:14.897Z,36.93
2023-03-17T15:36:43.466Z,38.12
2023-03-17T15:39:11.433Z,38.23
2023-03-17T15:41:39.074Z,37.19
2023-03-17T15:44:08.143Z,36.61
2023-03-17T15:46:36.656Z,36.56
2023-03-17T15:49:11.275Z,36.64
2023-03-17T15:51:39.295Z,38.68
2023-03-17T15:54:07.004Z,37.55
2023-03-17T15:56:35.484Z,37.75
2023-03-17T15:59:03.176Z,38.21
2023-03-17T16:01:32.240Z,38.63
2023-03-17T16:03:59.874Z,38.79
2023-03-17T16:06:27.574Z,39.53
2023-03-17T16:08:55.241Z,38.05
2023-03-17T16:11:28.401Z,37.51
2023-03-17T16:13:57.185Z,37.36
2023-03-17T16:16:31.568Z,37.04
2023-03-17T16:19:00.732Z,38.02
2023-03-17T16:21:30.598Z,37.32
2023-03-17T16:23:58.730Z,39.31
2023-03-17T16:26:26.524Z,37.97
2023-03-17T16:28:54.153Z,38.28
2023-03-17T16:31:26.781Z,37.81
2023-03-17T16:33:55.160Z,39.44
2023-03-17T16:36:26.197Z,39.31
2023-03-17T16:38:54.136Z,38.73
2023-03-17T16:41:24.902Z,39.35
2023-03-17T16:43:55.159Z,40.01
2023-03-17T16:46:23.552Z,41.57
2023-03-17T16:48:52.245Z,41.20
2023-03-17T16:51:20.354Z,42.05
2023-03-17T16:53:49.465Z,42.26
2023-03-17T16:56:20.055Z,43.17
2023-03-17T16:58:48.391Z,42.31
2023-03-17T17:01:19.112Z,41.73
2023-03-17T17:03:47.356Z,41.96
2023-03-17T17:06:15.373Z,42.30
2023-03-17T17:08:44.354Z,43.59
2023-03-17T17:11:14.532Z,44.17
2023-03-17T17:13:43.156Z,45.00
2023-03-17T17:16:20.298Z,45.32
2023-03-17T17:18:48.304Z,44.97
2023-03-17T17:21:16.005Z,45.98
2023-03-17T17:23:43.761Z,46.18
2023-03-17T17:26:12.906Z,46.09
2023-03-17T17:28:40.605Z,46.05
2023-03-17T17:31:08.722Z,44.05
2023-03-17T17:33:37.213Z,44.54
2023-03-17T17:36:06.037Z,43.70
2023-03-17T17:38:34.083Z,43.77
2023-03-17T17:41:05.574Z,43.02
2023-03-17T17:43:34.633Z,45.32
2023-03-17T17:46:02.409Z,43.38
2023-03-17T17:48:30.111Z,41.92
2023-03-17T17:50:58.346Z,42.04
2023-03-17T17:53:25.996Z,42.85
2023-03-17T17:55:53.723Z,43.52
2023-03-17T17:58:24.187Z,42.26
2023-03-17T18:00:55.220Z,43.47
2023-03-17T18:03:25.111Z,44.05
2023-03-17T18:05:53.414Z,44.09
2023-03-17T18:08:21.734Z,44.13
2023-03-17T18:10:51.864Z,43.86
2023-03-17T18:13:20.462Z,44.59
2023-03-17T18:15:48.118Z,45.63
2023-03-17T18:18:17.409Z,47.61
2023-03-17T18:20:45.476Z,48.11
2023-03-17T18:23:13.182Z,47.78
2023-03-17T18:25:41.092Z,48.37
2023-03-17T18:28:09.124Z,49.16
2023-03-17T18:30:37.390Z,49.33
2023-03-17T18:33:08.358Z,49.28
2023-03-17T18:35:38.037Z,49.27
2023-03-17T18:38:06.179Z,49.70
2023-03-17T18:40:34.137Z,50.61
2023-03-17T18:43:01.944Z,51.13
2023-03-17T18:45:29.655Z,50.32
2023-03-17T18:47:57.267Z,49.73
2023-03-17T18:50:24.916Z,50.83
2023-03-17T18:52:53.948Z,50.41
2023-03-17T18:55:21.606Z,51.10
2023-03-17T18:57:49.263Z,51.21
2023-03-17T19:00:18.866Z,50.39
2023-03-17T19:02:46.915Z,50.88
2023-03-17T19:05:15.267Z,50.60
2023-03-17T19:07:43.049Z,50.99
2023-03-17T19:10:13.990Z,49.93
2023-03-17T19:12:42.315Z,50.05
2023-03-17T19:15:12.423Z,50.42
2023-03-17T19:17:40.702Z,48.90
2023-03-17T19:20:12.245Z,49.08
2023-03-17T19:22:40.324Z,48.30
2023-03-17T19:25:09.158Z,47.58
2023-03-17T19:27:38.231Z,48.62
2023-03-17T19:30:07.047Z,48.08
2023-03-17T19:32:34.778Z,48.04
2023-03-17T19:35:02.526Z,47.66
2023-03-17T19:37:32.028Z,46.26
2023-03-17T19:39:59.704Z,46.58
2023-03-17T19:42:27.439Z,46.32
2023-03-17T19:44:56.430Z,47.50
2023-03-17T19:47:24.169Z,46.78
2023-03-17T19:49:52.050Z,46.88
2023-03-17T19:52:20.014Z,46.64
2023-03-17T19:54:47.810Z,46.09
2023-03-17T19:57:16.741Z,46.10
2023-03-17T19:59:44.550Z,45.71
2023-03-17T20:02:16.513Z,46.50
2023-03-17T20:04:44.467Z,46.27
2023-03-17T20:07:12.704Z,46.36
2023-03-17T20:09:40.334Z,46.33
2023-03-17T20:12:08.165Z,46.52
2023-03-17T20:14:35.842Z,46.16
2023-03-17T20:17:03.582Z,46.93
2023-03-17T20:19:32.638Z,47.59
2023-03-17T20:22:00.387Z,46.98
2023-03-17T20:24:29.106Z,47.72
2023-03-17T20:26:57.959Z,46.61
2023-03-17T20:29:25.957Z,47.30
2023-03-17T20:31:53.824Z,48.03
2023-03-17T20:34:21.566Z,47.55
2023-03-17T20:36:51.378Z,49.68
2023-03-17T20:39:20.563Z,48.80
2023-03-17T20:41:48.940Z,48.46
2023-03-17T20:44:17.637Z,46.91
2023-03-17T20:46:45.908Z,47.00
2023-03-17T20:49:14.113Z,47.74
2023-03-17T20:51:42.044Z,47.94
2023-03-17T20:54:11.749Z,47.25
2023-03-17T20:56:39.616Z,47.02
2023-03-17T20:59:09.924Z,48.61
2023-03-17T21:01:40.189Z,46.61
2023-03-17T21:04:09.058Z,46.37
2023-03-17T21:06:36.875Z,49.65
2023-03-17T21:09:05.891Z,48.37
2023-03-17T21:11:34.962Z,49.66
2023-03-17T21:14:03.315Z,49.42
2023-03-17T21:16:31.297Z,47.91
2023-03-17T21:18:59.750Z,50.21
2023-03-17T21:21:28.017Z,49.53
2023-03-17T21:23:56.430Z,48.48
2023-03-17T21:26:24.607Z,48.44
2023-03-17T21:28:54.560Z,48.71
2023-03-17T21:31:22.210Z,49.52
2023-03-17T21:33:50.516Z,50.55
2023-03-17T21:36:20.746Z,49.08
2023-03-17T21:38:48.404Z,49.97
2023-03-17T21:41:21.206Z,50.96
2023-03-17T21:43:48.871Z,50.77
2023-03-17T21:46:18.218Z,49.79
2023-03-17T21:48:46.036Z,50.77
2023-03-17T21:51:13.902Z,49.63
2023-03-17T21:53:41.647Z,50.48
2023-03-17T21:56:11.976Z,50.90
2023-03-17T21:58:40.226Z,52.06
2023-03-17T22:01:09.185Z,52.11
2023-03-17T22:03:39.886Z,51.60
2023-03-17T22:06:09.110Z,52.28
2023-03-17T22:08:36.857Z,50.97
2023-03-17T22:11:08.082Z,52.58
2023-03-17T22:13:35.868Z,53.24
2023-03-17T22:16:04.174Z,53.12
2023-03-17T22:18:32.439Z,53.01
2023-03-17T22:21:01.626Z,54.61
2023-03-17T22:23:30.386Z,55.15
2023-03-17T22:25:58.604Z,54.35
2023-03-17T22:28:26.441Z,54.08
2023-03-17T22:30:54.411Z,53.76
2023-03-17T22:33:22.270Z,54.04
2023-03-17T22:35:50.019Z,54.37
2023-03-17T22:38:19.194Z,52.04
2023-03-17T22:40:46.860Z,53.49
2023-03-17T22:43:14.503Z,52.38
2023-03-17T22:45:42.192Z,52.89
2023-03-17T22:48:10.854Z,53.73
2023-03-17T22:50:38.533Z,51.98
2023-03-17T22:53:06.216Z,52.12
2023-03-17T22:55:36.077Z,54.05
2023-03-17T22:58:03.738Z,53.66
2023-03-17T23:00:32.254Z,53.94
2023-03-17T23:03:00.108Z,51.67
2023-03-17T23:05:27.866Z,52.62
2023-03-17T23:07:55.715Z,53.46
2023-03-17T23:10:24.634Z,52.23
2023-03-17T23:12:53.812Z,53.30
2023-03-17T23:15:22.085Z,52.94
2023-03-17T23:17:49.747Z,53.67
2023-03-17T23:20:18.955Z,53.75
2023-03-17T23:22:46.980Z,52.64
2023-03-17T23:25:14.587Z,52.74
2023-03-17T23:27:42.497Z,53.05
2023-03-17T23:30:13.099Z,53.21
2023-03-17T23:32:41.626Z,51.08
2023-03-17T23:35:11.020Z,51.80
2023-03-17T23:37:38.622Z,50.97
2023-03-17T23:40:09.231Z,52.03
2023-03-17T23:42:37.004Z,50.17
2023-03-17T23:45:05.381Z,51.38
2023-03-17T23:47:34.390Z,51.56
2023-03-17T23:50:02.073Z,50.12
2023-03-17T23:52:30.578Z,51.93
2023-03-17T23:54:58.856Z,51.40
2023-03-17T23:57:26.610Z,51.09
2023-03-17T23:59:54.304Z,49.69
